Reno (RNO/KRNO)

Information

Location
Reno, NV
Local Time
04:52 / 4:52 am
GMT Time
12:52 / 12:52 pm
Gates
Unassigned
No FAA reported delays
METAR KRNO 161155Z 12006KT 10SM FEW014 SCT016 BKN020 M02/M06 A3030 RMK AO2 SLP279 4/002 T10221061 11011 21022 55003
TAF KRNO 161129Z 1612/1712 19006KT P6SM OVC015 FM170400 VRB03KT P6SM BKN015
  • No charts available